sensor_id;sensor_type;location;lat;lon;timestamp;temperature;humidity
32201;DHT22;18701;45.588;5.288;2023-04-25T00:00:47;12.90;99.90
32201;DHT22;18701;45.588;5.288;2023-04-25T00:03:13;12.90;99.90
32201;DHT22;18701;45.588;5.288;2023-04-25T00:05:39;13.00;99.90
32201;DHT22;18701;45.588;5.288;2023-04-25T00:08:05;13.20;99.90
32201;DHT22;18701;45.588;5.288;2023-04-25T00:10:31;13.20;99.90
32201;DHT22;18701;45.588;5.288;2023-04-25T00:12:56;13.20;99.90
32201;DHT22;18701;45.588;5.288;2023-04-25T00:15:22;13.10;99.90
32201;DHT22;18701;45.588;5.288;2023-04-25T00:17:49;12.90;99.90
32201;DHT22;18701;45.588;5.288;2023-04-25T00:20:18;13.10;99.90
32201;DHT22;18701;45.588;5.288;2023-04-25T00:22:43;13.10;99.90
32201;DHT22;18701;45.588;5.288;2023-04-25T00:25:09;13.10;99.90
32201;DHT22;18701;45.588;5.288;2023-04-25T00:27:34;12.90;99.90
32201;DHT22;18701;45.588;5.288;2023-04-25T00:30:00;12.80;99.90
32201;DHT22;18701;45.588;5.288;2023-04-25T00:32:26;13.00;99.90
32201;DHT22;18701;45.588;5.288;2023-04-25T00:34:51;13.00;99.90
32201;DHT22;18701;45.588;5.288;2023-04-25T00:37:17;12.90;99.90
32201;DHT22;18701;45.588;5.288;2023-04-25T00:39:43;12.70;99.90
32201;DHT22;18701;45.588;5.288;2023-04-25T00:42:10;12.60;99.90
32201;DHT22;18701;45.588;5.288;2023-04-25T00:44:37;12.80;99.90
32201;DHT22;18701;45.588;5.288;2023-04-25T00:47:03;12.80;99.90
32201;DHT22;18701;45.588;5.288;2023-04-25T00:49:29;12.70;99.90
32201;DHT22;18701;45.588;5.288;2023-04-25T00:51:56;12.50;99.90
32201;DHT22;18701;45.588;5.288;2023-04-25T00:54:22;12.80;99.90
32201;DHT22;18701;45.588;5.288;2023-04-25T00:56:47;12.70;99.90
32201;DHT22;18701;45.588;5.288;2023-04-25T00:59:15;12.70;99.90
32201;DHT22;18701;45.588;5.288;2023-04-25T01:01:42;12.70;99.90
32201;DHT22;18701;45.588;5.288;2023-04-25T01:04:08;12.90;99.90
32201;DHT22;18701;45.588;5.288;2023-04-25T01:06:33;12.90;99.90
32201;DHT22;18701;45.588;5.288;2023-04-25T01:08:59;12.90;99.90
32201;DHT22;18701;45.588;5.288;2023-04-25T01:11:25;12.90;99.90
32201;DHT22;18701;45.588;5.288;2023-04-25T01:13:51;12.80;99.90
32201;DHT22;18701;45.588;5.288;2023-04-25T01:16:16;12.70;99.90
32201;DHT22;18701;45.588;5.288;2023-04-25T01:18:42;12.70;99.90
32201;DHT22;18701;45.588;5.288;2023-04-25T01:21:10;12.80;99.90
32201;DHT22;18701;45.588;5.288;2023-04-25T01:23:40;12.70;99.90
32201;DHT22;18701;45.588;5.288;2023-04-25T01:26:10;12.80;99.90
32201;DHT22;18701;45.588;5.288;2023-04-25T01:28:36;12.80;99.90
32201;DHT22;18701;45.588;5.288;2023-04-25T01:31:02;12.70;99.90
32201;DHT22;18701;45.588;5.288;2023-04-25T01:33:29;12.80;99.90
32201;DHT22;18701;45.588;5.288;2023-04-25T01:35:55;12.70;99.90
32201;DHT22;18701;45.588;5.288;2023-04-25T01:38:21;12.70;99.90
32201;DHT22;18701;45.588;5.288;2023-04-25T01:40:46;12.50;99.90
32201;DHT22;18701;45.588;5.288;2023-04-25T01:43:14;12.50;99.90
32201;DHT22;18701;45.588;5.288;2023-04-25T01:45:41;12.50;99.90
32201;DHT22;18701;45.588;5.288;2023-04-25T01:48:08;12.50;99.90
32201;DHT22;18701;45.588;5.288;2023-04-25T01:50:34;12.50;99.90
32201;DHT22;18701;45.588;5.288;2023-04-25T01:53:00;12.40;99.90
32201;DHT22;18701;45.588;5.288;2023-04-25T01:55:27;12.40;99.90
32201;DHT22;18701;45.588;5.288;2023-04-25T01:57:53;12.30;99.90
32201;DHT22;18701;45.588;5.288;2023-04-25T02:00:22;12.10;99.90
32201;DHT22;18701;45.588;5.288;2023-04-25T02:02:47;11.50;99.90
32201;DHT22;18701;45.588;5.288;2023-04-25T02:05:13;11.30;99.90
32201;DHT22;18701;45.588;5.288;2023-04-25T02:07:39;11.60;99.90
32201;DHT22;18701;45.588;5.288;2023-04-25T02:10:05;11.70;99.90
32201;DHT22;18701;45.588;5.288;2023-04-25T02:12:31;11.70;99.90
32201;DHT22;18701;45.588;5.288;2023-04-25T02:14:57;11.60;99.90
32201;DHT22;18701;45.588;5.288;2023-04-25T02:17:22;11.70;99.90
32201;DHT22;18701;45.588;5.288;2023-04-25T02:19:48;11.90;99.90
32201;DHT22;18701;45.588;5.288;2023-04-25T02:22:14;11.90;99.90
32201;DHT22;18701;45.588;5.288;2023-04-25T02:24:39;12.00;99.90
32201;DHT22;18701;45.588;5.288;2023-04-25T02:27:05;12.00;99.90
32201;DHT22;18701;45.588;5.288;2023-04-25T02:29:31;12.00;99.90
32201;DHT22;18701;45.588;5.288;2023-04-25T02:31:57;12.10;99.90
32201;DHT22;18701;45.588;5.288;2023-04-25T02:34:23;12.00;99.90
32201;DHT22;18701;45.588;5.288;2023-04-25T02:36:48;12.10;99.90
32201;DHT22;18701;45.588;5.288;2023-04-25T02:39:16;12.00;99.90
32201;DHT22;18701;45.588;5.288;2023-04-25T02:41:42;11.90;99.90
32201;DHT22;18701;45.588;5.288;2023-04-25T02:44:07;12.10;99.90
32201;DHT22;18701;45.588;5.288;2023-04-25T02:46:33;12.10;99.90
32201;DHT22;18701;45.588;5.288;2023-04-25T02:48:59;12.00;99.90
32201;DHT22;18701;45.588;5.288;2023-04-25T02:51:24;11.90;99.90
32201;DHT22;18701;45.588;5.288;2023-04-25T02:53:50;12.10;99.90
32201;DHT22;18701;45.588;5.288;2023-04-25T02:56:16;12.00;99.90
32201;DHT22;18701;45.588;5.288;2023-04-25T02:58:41;11.90;99.90
32201;DHT22;18701;45.588;5.288;2023-04-25T03:01:07;11.70;99.90
32201;DHT22;18701;45.588;5.288;2023-04-25T03:03:32;11.80;99.90
32201;DHT22;18701;45.588;5.288;2023-04-25T03:05:58;11.80;99.90
32201;DHT22;18701;45.588;5.288;2023-04-25T03:08:23;11.90;99.90
32201;DHT22;18701;45.588;5.288;2023-04-25T03:10:50;11.80;99.90
32201;DHT22;18701;45.588;5.288;2023-04-25T03:13:17;11.80;99.90
32201;DHT22;18701;45.588;5.288;2023-04-25T03:15:43;11.70;99.90
32201;DHT22;18701;45.588;5.288;2023-04-25T03:18:08;12.00;99.90
32201;DHT22;18701;45.588;5.288;2023-04-25T03:20:34;11.90;99.90
32201;DHT22;18701;45.588;5.288;2023-04-25T03:23:00;12.00;99.90
32201;DHT22;18701;45.588;5.288;2023-04-25T03:25:25;12.10;99.90
32201;DHT22;18701;45.588;5.288;2023-04-25T03:27:51;12.10;99.90
32201;DHT22;18701;45.588;5.288;2023-04-25T03:30:16;12.20;99.90
32201;DHT22;18701;45.588;5.288;2023-04-25T03:32:42;12.20;99.90
32201;DHT22;18701;45.588;5.288;2023-04-25T03:35:08;12.10;99.90
32201;DHT22;18701;45.588;5.288;2023-04-25T03:37:34;12.10;99.90
32201;DHT22;18701;45.588;5.288;2023-04-25T03:39:59;12.20;99.90
32201;DHT22;18701;45.588;5.288;2023-04-25T03:42:25;12.10;99.90
32201;DHT22;18701;45.588;5.288;2023-04-25T03:44:51;12.20;99.90
32201;DHT22;18701;45.588;5.288;2023-04-25T03:47:17;12.20;99.90
32201;DHT22;18701;45.588;5.288;2023-04-25T03:49:42;12.10;99.90
32201;DHT22;18701;45.588;5.288;2023-04-25T03:52:08;12.20;99.90
32201;DHT22;18701;45.588;5.288;2023-04-25T03:54:34;12.10;99.90
32201;DHT22;18701;45.588;5.288;2023-04-25T03:57:00;12.20;99.90
32201;DHT22;18701;45.588;5.288;2023-04-25T03:59:25;12.10;99.90
32201;DHT22;18701;45.588;5.288;2023-04-25T04:01:51;12.10;99.90
32201;DHT22;18701;45.588;5.288;2023-04-25T04:04:17;12.10;99.90
32201;DHT22;18701;45.588;5.288;2023-04-25T04:06:43;12.10;99.90
32201;DHT22;18701;45.588;5.288;2023-04-25T04:09:09;12.10;99.90
32201;DHT22;18701;45.588;5.288;2023-04-25T04:11:37;12.10;99.90
32201;DHT22;18701;45.588;5.288;2023-04-25T04:14:06;12.20;99.90
32201;DHT22;18701;45.588;5.288;2023-04-25T04:16:35;12.20;99.90
32201;DHT22;18701;45.588;5.288;2023-04-25T04:19:01;12.10;99.90
32201;DHT22;18701;45.588;5.288;2023-04-25T04:21:27;12.10;99.90
32201;DHT22;18701;45.588;5.288;2023-04-25T04:23:53;11.80;99.90
32201;DHT22;18701;45.588;5.288;2023-04-25T04:26:20;12.00;99.90
32201;DHT22;18701;45.588;5.288;2023-04-25T04:28:49;12.10;99.90
32201;DHT22;18701;45.588;5.288;2023-04-25T04:31:16;12.00;99.90
32201;DHT22;18701;45.588;5.288;2023-04-25T04:33:42;12.20;99.90
32201;DHT22;18701;45.588;5.288;2023-04-25T04:36:07;11.90;99.90
32201;DHT22;18701;45.588;5.288;2023-04-25T04:38:33;12.10;99.90
32201;DHT22;18701;45.588;5.288;2023-04-25T04:40:59;12.10;99.90
32201;DHT22;18701;45.588;5.288;2023-04-25T04:43:25;12.10;99.90
32201;DHT22;18701;45.588;5.288;2023-04-25T04:45:51;12.20;99.90
32201;DHT22;18701;45.588;5.288;2023-04-25T04:48:17;12.00;99.90
32201;DHT22;18701;45.588;5.288;2023-04-25T04:50:43;12.00;99.90
32201;DHT22;18701;45.588;5.288;2023-04-25T04:53:10;12.10;99.90
32201;DHT22;18701;45.588;5.288;2023-04-25T04:55:36;12.00;99.90
32201;DHT22;18701;45.588;5.288;2023-04-25T04:58:02;12.00;99.90
32201;DHT22;18701;45.588;5.288;2023-04-25T05:00:27;11.90;99.90
32201;DHT22;18701;45.588;5.288;2023-04-25T05:02:55;11.70;99.90
32201;DHT22;18701;45.588;5.288;2023-04-25T05:05:21;11.90;99.90
32201;DHT22;18701;45.588;5.288;2023-04-25T05:07:46;11.80;99.90
32201;DHT22;18701;45.588;5.288;2023-04-25T05:10:12;11.70;99.90
32201;DHT22;18701;45.588;5.288;2023-04-25T05:12:37;11.80;99.90
32201;DHT22;18701;45.588;5.288;2023-04-25T05:15:03;11.70;99.90
32201;DHT22;18701;45.588;5.288;2023-04-25T05:17:29;11.80;99.90
32201;DHT22;18701;45.588;5.288;2023-04-25T05:19:55;11.80;99.90
32201;DHT22;18701;45.588;5.288;2023-04-25T05:22:20;11.80;99.90
32201;DHT22;18701;45.588;5.288;2023-04-25T05:24:46;11.70;99.90
32201;DHT22;18701;45.588;5.288;2023-04-25T05:27:13;11.80;99.90
32201;DHT22;18701;45.588;5.288;2023-04-25T05:29:39;11.80;99.90
32201;DHT22;18701;45.588;5.288;2023-04-25T05:32:05;11.80;99.90
32201;DHT22;18701;45.588;5.288;2023-04-25T05:34:31;11.70;99.90
32201;DHT22;18701;45.588;5.288;2023-04-25T05:36:56;12.00;99.90
32201;DHT22;18701;45.588;5.288;2023-04-25T05:39:22;12.00;99.90
32201;DHT22;18701;45.588;5.288;2023-04-25T05:41:48;12.10;99.90
32201;DHT22;18701;45.588;5.288;2023-04-25T05:44:13;12.10;99.90
32201;DHT22;18701;45.588;5.288;2023-04-25T05:46:41;12.30;99.90
32201;DHT22;18701;45.588;5.288;2023-04-25T05:49:06;12.30;99.90
32201;DHT22;18701;45.588;5.288;2023-04-25T05:51:32;12.40;99.90
32201;DHT22;18701;45.588;5.288;2023-04-25T05:53:58;12.20;99.90
32201;DHT22;18701;45.588;5.288;2023-04-25T05:56:23;12.20;99.90
32201;DHT22;18701;45.588;5.288;2023-04-25T05:58:49;12.10;99.90
32201;DHT22;18701;45.588;5.288;2023-04-25T06:01:14;12.20;99.90
32201;DHT22;18701;45.588;5.288;2023-04-25T06:03:41;12.40;99.90
32201;DHT22;18701;45.588;5.288;2023-04-25T06:06:08;12.40;99.90
32201;DHT22;18701;45.588;5.288;2023-04-25T06:08:34;12.10;99.90
32201;DHT22;18701;45.588;5.288;2023-04-25T06:11:00;12.30;99.90
32201;DHT22;18701;45.588;5.288;2023-04-25T06:13:26;12.30;99.90
32201;DHT22;18701;45.588;5.288;2023-04-25T06:15:51;12.10;99.90
32201;DHT22;18701;45.588;5.288;2023-04-25T06:18:17;11.80;99.90
32201;DHT22;18701;45.588;5.288;2023-04-25T06:20:43;12.00;99.90
32201;DHT22;18701;45.588;5.288;2023-04-25T06:23:08;12.20;99.90
32201;DHT22;18701;45.588;5.288;2023-04-25T06:25:34;12.20;99.90
32201;DHT22;18701;45.588;5.288;2023-04-25T06:27:59;12.20;99.90
32201;DHT22;18701;45.588;5.288;2023-04-25T06:30:25;12.10;99.90
32201;DHT22;18701;45.588;5.288;2023-04-25T06:32:52;12.20;99.90
32201;DHT22;18701;45.588;5.288;2023-04-25T06:35:18;12.20;99.90
32201;DHT22;18701;45.588;5.288;2023-04-25T06:37:44;12.40;99.90
32201;DHT22;18701;45.588;5.288;2023-04-25T06:40:10;12.50;99.90
32201;DHT22;18701;45.588;5.288;2023-04-25T06:42:36;12.20;99.90
32201;DHT22;18701;45.588;5.288;2023-04-25T06:45:02;12.60;99.90
32201;DHT22;18701;45.588;5.288;2023-04-25T06:47:28;12.50;99.90
32201;DHT22;18701;45.588;5.288;2023-04-25T06:49:53;12.60;99.90
32201;DHT22;18701;45.588;5.288;2023-04-25T06:52:19;12.60;99.90
32201;DHT22;18701;45.588;5.288;2023-04-25T06:54:44;12.50;99.90
32201;DHT22;18701;45.588;5.288;2023-04-25T06:57:10;12.60;99.90
32201;DHT22;18701;45.588;5.288;2023-04-25T06:59:36;12.80;99.90
32201;DHT22;18701;45.588;5.288;2023-04-25T07:02:01;12.80;99.90
32201;DHT22;18701;45.588;5.288;2023-04-25T07:04:27;12.70;99.90
32201;DHT22;18701;45.588;5.288;2023-04-25T07:06:53;12.50;99.90
32201;DHT22;18701;45.588;5.288;2023-04-25T07:09:21;12.40;99.90
32201;DHT22;18701;45.588;5.288;2023-04-25T07:11:46;12.50;99.90
32201;DHT22;18701;45.588;5.288;2023-04-25T07:14:12;12.50;99.90
32201;DHT22;18701;45.588;5.288;2023-04-25T07:16:38;12.80;99.90
32201;DHT22;18701;45.588;5.288;2023-04-25T07:19:03;12.90;99.90
32201;DHT22;18701;45.588;5.288;2023-04-25T07:21:29;12.80;99.90
32201;DHT22;18701;45.588;5.288;2023-04-25T07:23:56;12.90;99.90
32201;DHT22;18701;45.588;5.288;2023-04-25T07:26:22;12.80;99.90
32201;DHT22;18701;45.588;5.288;2023-04-25T07:28:48;12.90;99.90
32201;DHT22;18701;45.588;5.288;2023-04-25T07:31:16;12.80;99.90
32201;DHT22;18701;45.588;5.288;2023-04-25T07:33:44;12.80;99.90
32201;DHT22;18701;45.588;5.288;2023-04-25T07:36:10;12.80;99.90
32201;DHT22;18701;45.588;5.288;2023-04-25T07:38:36;12.90;99.90
32201;DHT22;18701;45.588;5.288;2023-04-25T07:41:01;12.90;99.90
32201;DHT22;18701;45.588;5.288;2023-04-25T07:43:27;12.80;99.90
32201;DHT22;18701;45.588;5.288;2023-04-25T07:45:53;12.80;99.90
32201;DHT22;18701;45.588;5.288;2023-04-25T07:48:21;13.00;99.90
32201;DHT22;18701;45.588;5.288;2023-04-25T07:50:47;13.10;99.90
32201;DHT22;18701;45.588;5.288;2023-04-25T07:53:13;13.10;99.90
32201;DHT22;18701;45.588;5.288;2023-04-25T07:55:38;13.20;99.90
32201;DHT22;18701;45.588;5.288;2023-04-25T07:58:06;13.30;99.90
32201;DHT22;18701;45.588;5.288;2023-04-25T08:00:32;13.10;99.90
32201;DHT22;18701;45.588;5.288;2023-04-25T08:02:57;13.50;99.90
32201;DHT22;18701;45.588;5.288;2023-04-25T08:05:23;13.60;99.90
32201;DHT22;18701;45.588;5.288;2023-04-25T08:07:49;13.50;99.90
32201;DHT22;18701;45.588;5.288;2023-04-25T08:10:15;13.90;99.90
32201;DHT22;18701;45.588;5.288;2023-04-25T08:12:40;13.90;99.90
32201;DHT22;18701;45.588;5.288;2023-04-25T08:15:06;13.80;99.90
32201;DHT22;18701;45.588;5.288;2023-04-25T08:17:32;13.90;99.90
32201;DHT22;18701;45.588;5.288;2023-04-25T08:19:58;14.40;99.90
32201;DHT22;18701;45.588;5.288;2023-04-25T08:22:24;14.60;99.90
32201;DHT22;18701;45.588;5.288;2023-04-25T08:24:49;14.80;99.90
32201;DHT22;18701;45.588;5.288;2023-04-25T08:27:15;13.90;99.90
32201;DHT22;18701;45.588;5.288;2023-04-25T08:29:42;13.80;99.90
32201;DHT22;18701;45.588;5.288;2023-04-25T08:32:07;14.10;99.90
32201;DHT22;18701;45.588;5.288;2023-04-25T08:34:33;14.20;99.90
32201;DHT22;18701;45.588;5.288;2023-04-25T08:36:59;13.80;99.90
32201;DHT22;18701;45.588;5.288;2023-04-25T08:39:24;13.70;99.90
32201;DHT22;18701;45.588;5.288;2023-04-25T08:41:50;13.70;99.90
32201;DHT22;18701;45.588;5.288;2023-04-25T08:44:16;13.50;99.90
32201;DHT22;18701;45.588;5.288;2023-04-25T08:46:42;13.80;99.90
32201;DHT22;18701;45.588;5.288;2023-04-25T08:49:12;13.70;99.90
32201;DHT22;18701;45.588;5.288;2023-04-25T08:51:45;13.80;99.90
32201;DHT22;18701;45.588;5.288;2023-04-25T08:54:16;13.80;99.90
32201;DHT22;18701;45.588;5.288;2023-04-25T08:56:45;14.30;99.90
32201;DHT22;18701;45.588;5.288;2023-04-25T08:59:13;14.10;99.90
32201;DHT22;18701;45.588;5.288;2023-04-25T09:01:39;14.10;99.90
32201;DHT22;18701;45.588;5.288;2023-04-25T09:04:05;14.20;99.90
32201;DHT22;18701;45.588;5.288;2023-04-25T09:06:31;14.40;99.90
32201;DHT22;18701;45.588;5.288;2023-04-25T09:09:04;14.50;99.90
32201;DHT22;18701;45.588;5.288;2023-04-25T09:11:31;14.50;99.90
32201;DHT22;18701;45.588;5.288;2023-04-25T09:14:16;14.40;99.90
32201;DHT22;18701;45.588;5.288;2023-04-25T09:19:32;13.90;99.90
32201;DHT22;18701;45.588;5.288;2023-04-25T09:22:02;14.00;99.90
32201;DHT22;18701;45.588;5.288;2023-04-25T09:24:38;14.30;99.90
32201;DHT22;18701;45.588;5.288;2023-04-25T09:27:10;14.60;99.90
32201;DHT22;18701;45.588;5.288;2023-04-25T09:29:38;14.80;99.90
32201;DHT22;18701;45.588;5.288;2023-04-25T09:32:21;14.90;99.90
32201;DHT22;18701;45.588;5.288;2023-04-25T09:34:57;15.20;99.90
32201;DHT22;18701;45.588;5.288;2023-04-25T09:37:25;15.00;99.90
32201;DHT22;18701;45.588;5.288;2023-04-25T09:39:56;15.10;99.90
32201;DHT22;18701;45.588;5.288;2023-04-25T09:42:23;15.40;99.90
32201;DHT22;18701;45.588;5.288;2023-04-25T09:44:51;15.80;99.90
32201;DHT22;18701;45.588;5.288;2023-04-25T09:47:17;16.00;99.80
32201;DHT22;18701;45.588;5.288;2023-04-25T09:49:43;15.60;97.70
32201;DHT22;18701;45.588;5.288;2023-04-25T09:52:19;15.60;96.60
32201;DHT22;18701;45.588;5.288;2023-04-25T09:54:46;15.40;97.20
32201;DHT22;18701;45.588;5.288;2023-04-25T09:59:55;15.60;96.30
32201;DHT22;18701;45.588;5.288;2023-04-25T10:02:25;15.60;97.30
32201;DHT22;18701;45.588;5.288;2023-04-25T10:04:52;15.80;97.00
32201;DHT22;18701;45.588;5.288;2023-04-25T10:07:21;16.20;97.00
32201;DHT22;18701;45.588;5.288;2023-04-25T10:09:55;16.30;95.50
32201;DHT22;18701;45.588;5.288;2023-04-25T10:12:24;15.70;97.10
32201;DHT22;18701;45.588;5.288;2023-04-25T10:14:50;15.70;98.60
32201;DHT22;18701;45.588;5.288;2023-04-25T10:17:17;15.50;98.50
32201;DHT22;18701;45.588;5.288;2023-04-25T10:19:48;15.00;99.80
32201;DHT22;18701;45.588;5.288;2023-04-25T10:22:37;14.70;99.90
32201;DHT22;18701;45.588;5.288;2023-04-25T10:25:04;14.70;99.90
32201;DHT22;18701;45.588;5.288;2023-04-25T10:27:30;14.70;99.90
32201;DHT22;18701;45.588;5.288;2023-04-25T10:32:33;15.80;99.90
32201;DHT22;18701;45.588;5.288;2023-04-25T10:35:16;15.90;99.50
32201;DHT22;18701;45.588;5.288;2023-04-25T10:40:33;16.60;98.10
32201;DHT22;18701;45.588;5.288;2023-04-25T10:46:02;17.30;96.60
32201;DHT22;18701;45.588;5.288;2023-04-25T10:48:31;17.40;96.70
32201;DHT22;18701;45.588;5.288;2023-04-25T10:51:17;17.40;96.50
32201;DHT22;18701;45.588;5.288;2023-04-25T10:54:04;17.30;96.40
32201;DHT22;18701;45.588;5.288;2023-04-25T10:56:37;17.50;96.60
32201;DHT22;18701;45.588;5.288;2023-04-25T10:59:12;17.00;97.10
32201;DHT22;18701;45.588;5.288;2023-04-25T11:01:42;16.30;98.10
32201;DHT22;18701;45.588;5.288;2023-04-25T11:04:44;16.40;96.70
32201;DHT22;18701;45.588;5.288;2023-04-25T11:10:27;16.60;95.60
32201;DHT22;18701;45.588;5.288;2023-04-25T11:12:54;17.50;96.10
32201;DHT22;18701;45.588;5.288;2023-04-25T11:15:19;18.10;95.90
32201;DHT22;18701;45.588;5.288;2023-04-25T11:17:45;18.00;94.40
32201;DHT22;18701;45.588;5.288;2023-04-25T11:20:15;18.40;94.30
32201;DHT22;18701;45.588;5.288;2023-04-25T11:22:41;17.80;94.90
32201;DHT22;18701;45.588;5.288;2023-04-25T11:25:08;17.40;95.60
32201;DHT22;18701;45.588;5.288;2023-04-25T11:27:59;17.70;94.30
32201;DHT22;18701;45.588;5.288;2023-04-25T11:30:24;16.90;93.00
32201;DHT22;18701;45.588;5.288;2023-04-25T11:32:50;17.80;92.70
32201;DHT22;18701;45.588;5.288;2023-04-25T11:35:18;18.10;92.60
32201;DHT22;18701;45.588;5.288;2023-04-25T11:37:44;17.50;92.00
32201;DHT22;18701;45.588;5.288;2023-04-25T11:40:11;17.80;93.00
32201;DHT22;18701;45.588;5.288;2023-04-25T11:42:43;18.20;94.70
32201;DHT22;18701;45.588;5.288;2023-04-25T11:45:09;17.70;94.90
32201;DHT22;18701;45.588;5.288;2023-04-25T11:47:36;17.80;94.70
32201;DHT22;18701;45.588;5.288;2023-04-25T11:50:04;17.60;95.00
32201;DHT22;18701;45.588;5.288;2023-04-25T11:55:14;18.00;94.60
32201;DHT22;18701;45.588;5.288;2023-04-25T11:57:40;18.80;94.40
32201;DHT22;18701;45.588;5.288;2023-04-25T12:00:14;17.60;93.20
32201;DHT22;18701;45.588;5.288;2023-04-25T12:02:43;18.00;93.20
32201;DHT22;18701;45.588;5.288;2023-04-25T12:05:10;17.20;93.30
32201;DHT22;18701;45.588;5.288;2023-04-25T12:07:36;17.60;92.80
32201;DHT22;18701;45.588;5.288;2023-04-25T12:10:11;18.30;92.10
32201;DHT22;18701;45.588;5.288;2023-04-25T12:12:38;19.20;92.40
32201;DHT22;18701;45.588;5.288;2023-04-25T12:15:17;18.80;92.40
32201;DHT22;18701;45.588;5.288;2023-04-25T12:17:50;17.50;92.70
32201;DHT22;18701;45.588;5.288;2023-04-25T12:20:18;17.00;93.00
32201;DHT22;18701;45.588;5.288;2023-04-25T12:22:46;17.90;93.00
32201;DHT22;18701;45.588;5.288;2023-04-25T12:25:13;18.10;92.20
32201;DHT22;18701;45.588;5.288;2023-04-25T12:27:39;19.00;92.80
32201;DHT22;18701;45.588;5.288;2023-04-25T12:30:08;19.00;91.40
32201;DHT22;18701;45.588;5.288;2023-04-25T12:32:34;19.20;90.10
32201;DHT22;18701;45.588;5.288;2023-04-25T12:35:01;18.80;89.50
32201;DHT22;18701;45.588;5.288;2023-04-25T12:37:28;19.80;90.20
32201;DHT22;18701;45.588;5.288;2023-04-25T12:39:53;20.30;90.10
32201;DHT22;18701;45.588;5.288;2023-04-25T12:42:19;21.10;90.40
32201;DHT22;18701;45.588;5.288;2023-04-25T12:44:45;20.70;90.50
32201;DHT22;18701;45.588;5.288;2023-04-25T12:47:11;20.30;90.30
32201;DHT22;18701;45.588;5.288;2023-04-25T12:49:37;19.90;90.80
32201;DHT22;18701;45.588;5.288;2023-04-25T12:52:02;19.80;91.00
32201;DHT22;18701;45.588;5.288;2023-04-25T12:54:28;19.30;90.20
32201;DHT22;18701;45.588;5.288;2023-04-25T12:56:54;19.10;91.20
32201;DHT22;18701;45.588;5.288;2023-04-25T12:59:20;19.20;90.50
32201;DHT22;18701;45.588;5.288;2023-04-25T13:01:46;19.50;90.70
32201;DHT22;18701;45.588;5.288;2023-04-25T13:04:12;19.90;89.30
32201;DHT22;18701;45.588;5.288;2023-04-25T13:06:38;19.20;90.30
32201;DHT22;18701;45.588;5.288;2023-04-25T13:09:03;20.10;89.90
32201;DHT22;18701;45.588;5.288;2023-04-25T13:11:29;19.60;88.40
32201;DHT22;18701;45.588;5.288;2023-04-25T13:13:55;19.70;90.00
32201;DHT22;18701;45.588;5.288;2023-04-25T13:16:21;19.80;88.40
32201;DHT22;18701;45.588;5.288;2023-04-25T13:18:47;19.70;86.20
32201;DHT22;18701;45.588;5.288;2023-04-25T13:21:13;20.50;85.80
32201;DHT22;18701;45.588;5.288;2023-04-25T13:23:39;20.30;86.00
32201;DHT22;18701;45.588;5.288;2023-04-25T13:26:06;20.60;87.20
32201;DHT22;18701;45.588;5.288;2023-04-25T13:28:31;20.20;85.20
32201;DHT22;18701;45.588;5.288;2023-04-25T13:30:57;20.00;86.00
32201;DHT22;18701;45.588;5.288;2023-04-25T13:33:23;18.80;87.30
32201;DHT22;18701;45.588;5.288;2023-04-25T13:35:49;18.40;89.20
32201;DHT22;18701;45.588;5.288;2023-04-25T13:38:24;18.70;90.10
32201;DHT22;18701;45.588;5.288;2023-04-25T13:40:52;18.70;90.00
32201;DHT22;18701;45.588;5.288;2023-04-25T13:43:20;20.00;87.80
32201;DHT22;18701;45.588;5.288;2023-04-25T13:45:47;20.30;85.20
32201;DHT22;18701;45.588;5.288;2023-04-25T13:48:13;19.90;81.50
32201;DHT22;18701;45.588;5.288;2023-04-25T13:50:39;20.70;84.40
32201;DHT22;18701;45.588;5.288;2023-04-25T13:53:05;20.80;85.80
32201;DHT22;18701;45.588;5.288;2023-04-25T13:55:30;19.50;83.90
32201;DHT22;18701;45.588;5.288;2023-04-25T13:57:56;19.10;87.10
32201;DHT22;18701;45.588;5.288;2023-04-25T14:00:22;19.50;87.10
32201;DHT22;18701;45.588;5.288;2023-04-25T14:02:48;20.70;86.60
32201;DHT22;18701;45.588;5.288;2023-04-25T14:05:13;20.50;83.00
32201;DHT22;18701;45.588;5.288;2023-04-25T14:07:39;20.00;82.40
32201;DHT22;18701;45.588;5.288;2023-04-25T14:10:05;20.10;82.50
32201;DHT22;18701;45.588;5.288;2023-04-25T14:12:31;19.90;84.70
32201;DHT22;18701;45.588;5.288;2023-04-25T14:14:57;20.90;85.00
32201;DHT22;18701;45.588;5.288;2023-04-25T14:17:23;19.60;82.00
32201;DHT22;18701;45.588;5.288;2023-04-25T14:19:49;19.60;80.60
32201;DHT22;18701;45.588;5.288;2023-04-25T14:22:15;19.70;81.50
32201;DHT22;18701;45.588;5.288;2023-04-25T14:24:41;19.60;80.90
32201;DHT22;18701;45.588;5.288;2023-04-25T14:27:07;19.80;81.10
32201;DHT22;18701;45.588;5.288;2023-04-25T14:29:33;20.40;81.50
32201;DHT22;18701;45.588;5.288;2023-04-25T14:31:59;19.90;82.20
32201;DHT22;18701;45.588;5.288;2023-04-25T14:34:25;20.20;82.10
32201;DHT22;18701;45.588;5.288;2023-04-25T14:36:51;19.70;81.10
32201;DHT22;18701;45.588;5.288;2023-04-25T14:39:17;20.40;80.40
32201;DHT22;18701;45.588;5.288;2023-04-25T14:41:43;20.50;79.40
32201;DHT22;18701;45.588;5.288;2023-04-25T14:44:09;19.80;79.50
32201;DHT22;18701;45.588;5.288;2023-04-25T14:46:35;19.80;79.20
32201;DHT22;18701;45.588;5.288;2023-04-25T14:49:01;20.00;79.80
32201;DHT22;18701;45.588;5.288;2023-04-25T14:51:27;19.80;78.70
32201;DHT22;18701;45.588;5.288;2023-04-25T14:53:53;20.00;80.90
32201;DHT22;18701;45.588;5.288;2023-04-25T14:56:18;20.60;79.30
32201;DHT22;18701;45.588;5.288;2023-04-25T14:58:44;20.80;79.90
32201;DHT22;18701;45.588;5.288;2023-04-25T15:01:11;19.80;78.50
32201;DHT22;18701;45.588;5.288;2023-04-25T15:03:39;21.00;81.70
32201;DHT22;18701;45.588;5.288;2023-04-25T15:06:05;20.50;79.40
32201;DHT22;18701;45.588;5.288;2023-04-25T15:08:31;19.90;77.10
32201;DHT22;18701;45.588;5.288;2023-04-25T15:10:57;19.90;78.00
32201;DHT22;18701;45.588;5.288;2023-04-25T15:13:23;20.40;78.80
32201;DHT22;18701;45.588;5.288;2023-04-25T15:15:48;20.30;78.50
32201;DHT22;18701;45.588;5.288;2023-04-25T15:18:18;21.00;77.70
32201;DHT22;18701;45.588;5.288;2023-04-25T15:20:44;20.10;78.00
32201;DHT22;18701;45.588;5.288;2023-04-25T15:23:09;20.10;79.50
32201;DHT22;18701;45.588;5.288;2023-04-25T15:25:35;20.40;78.20
32201;DHT22;18701;45.588;5.288;2023-04-25T15:28:00;19.60;81.10
32201;DHT22;18701;45.588;5.288;2023-04-25T15:30:26;20.00;79.90
32201;DHT22;18701;45.588;5.288;2023-04-25T15:32:52;20.60;79.00
32201;DHT22;18701;45.588;5.288;2023-04-25T15:35:18;20.60;79.90
32201;DHT22;18701;45.588;5.288;2023-04-25T15:37:43;20.10;80.30
32201;DHT22;18701;45.588;5.288;2023-04-25T15:40:14;19.40;78.40
32201;DHT22;18701;45.588;5.288;2023-04-25T15:42:48;19.10;78.50
32201;DHT22;18701;45.588;5.288;2023-04-25T15:45:19;19.40;79.60
32201;DHT22;18701;45.588;5.288;2023-04-25T15:47:45;19.40;79.00